sensor_id;sensor_type;location;lat;lon;timestamp;pressure;altitude;pressure_sealevel;temperature;humidity
34696;BME280;20918;51.138;17.370;2023-02-17T00:02:26;100695.17;;;1.37;75.22
34696;BME280;20918;51.138;17.370;2023-02-17T00:05:27;100685.90;;;1.32;75.81
34696;BME280;20918;51.138;17.370;2023-02-17T00:08:27;100685.02;;;1.21;75.78
34696;BME280;20918;51.138;17.370;2023-02-17T00:11:28;100686.29;;;1.14;75.84
34696;BME280;20918;51.138;17.370;2023-02-17T00:14:29;100685.34;;;1.09;76.04
34696;BME280;20918;51.138;17.370;2023-02-17T00:17:30;100684.61;;;1.04;75.94
34696;BME280;20918;51.138;17.370;2023-02-17T00:20:30;100679.91;;;0.98;76.33
34696;BME280;20918;51.138;17.370;2023-02-17T00:23:31;100686.29;;;0.91;76.02
34696;BME280;20918;51.138;17.370;2023-02-17T00:26:31;100686.17;;;0.81;76.10
34696;BME280;20918;51.138;17.370;2023-02-17T00:29:32;100693.27;;;0.70;76.42
34696;BME280;20918;51.138;17.370;2023-02-17T00:32:33;100688.42;;;0.60;76.48
34696;BME280;20918;51.138;17.370;2023-02-17T00:35:38;100691.59;;;0.45;76.57
34696;BME280;20918;51.138;17.370;2023-02-17T00:38:39;100693.92;;;0.37;76.81
34696;BME280;20918;51.138;17.370;2023-02-17T00:41:39;100689.83;;;0.35;77.02
34696;BME280;20918;51.138;17.370;2023-02-17T00:44:40;100680.71;;;0.37;76.97
34696;BME280;20918;51.138;17.370;2023-02-17T00:47:40;100679.90;;;0.39;77.13
34696;BME280;20918;51.138;17.370;2023-02-17T00:50:43;100681.82;;;0.39;77.21
34696;BME280;20918;51.138;17.370;2023-02-17T00:53:44;100676.60;;;0.39;77.41
34696;BME280;20918;51.138;17.370;2023-02-17T00:56:45;100673.45;;;0.39;77.25
34696;BME280;20918;51.138;17.370;2023-02-17T00:59:45;100678.42;;;0.37;77.63
34696;BME280;20918;51.138;17.370;2023-02-17T01:02:47;100678.92;;;0.35;77.81
34696;BME280;20918;51.138;17.370;2023-02-17T01:05:51;100674.60;;;0.34;77.74
34696;BME280;20918;51.138;17.370;2023-02-17T01:08:54;100674.61;;;0.37;77.96
34696;BME280;20918;51.138;17.370;2023-02-17T01:11:54;100671.02;;;0.42;77.99
34696;BME280;20918;51.138;17.370;2023-02-17T01:14:55;100664.60;;;0.44;77.62
34696;BME280;20918;51.138;17.370;2023-02-17T01:17:57;100659.17;;;0.42;78.03
34696;BME280;20918;51.138;17.370;2023-02-17T01:20:58;100656.42;;;0.44;78.11
34696;BME280;20918;51.138;17.370;2023-02-17T01:24:01;100654.20;;;0.47;78.25
34696;BME280;20918;51.138;17.370;2023-02-17T01:27:02;100648.84;;;0.52;78.35
34696;BME280;20918;51.138;17.370;2023-02-17T01:30:03;100645.67;;;0.56;78.37
34696;BME280;20918;51.138;17.370;2023-02-17T01:33:04;100646.35;;;0.59;78.46
34696;BME280;20918;51.138;17.370;2023-02-17T01:36:06;100642.81;;;0.57;78.23
34696;BME280;20918;51.138;17.370;2023-02-17T01:39:08;100645.89;;;0.58;78.59
34696;BME280;20918;51.138;17.370;2023-02-17T01:42:17;100644.92;;;0.60;78.76
34696;BME280;20918;51.138;17.370;2023-02-17T01:48:29;100639.84;;;0.69;78.76
34696;BME280;20918;51.138;17.370;2023-02-17T01:51:34;100635.58;;;0.74;78.94
34696;BME280;20918;51.138;17.370;2023-02-17T01:54:49;100631.36;;;0.77;78.71
34696;BME280;20918;51.138;17.370;2023-02-17T01:57:54;100624.88;;;0.81;78.80
34696;BME280;20918;51.138;17.370;2023-02-17T02:00:59;100618.10;;;0.83;79.03
34696;BME280;20918;51.138;17.370;2023-02-17T02:04:02;100611.89;;;0.82;78.90
34696;BME280;20918;51.138;17.370;2023-02-17T02:07:10;100608.83;;;0.84;78.99
34696;BME280;20918;51.138;17.370;2023-02-17T02:10:16;100602.38;;;0.87;79.05
34696;BME280;20918;51.138;17.370;2023-02-17T02:13:17;100596.08;;;0.87;79.20
34696;BME280;20918;51.138;17.370;2023-02-17T02:16:37;100585.91;;;0.85;79.04
34696;BME280;20918;51.138;17.370;2023-02-17T02:23:15;100581.69;;;0.89;79.34
34696;BME280;20918;51.138;17.370;2023-02-17T02:36:19;100568.13;;;1.03;79.50
34696;BME280;20918;51.138;17.370;2023-02-17T02:39:28;100569.59;;;1.07;79.62
34696;BME280;20918;51.138;17.370;2023-02-17T02:42:29;100566.20;;;1.11;79.62
34696;BME280;20918;51.138;17.370;2023-02-17T02:45:30;100558.94;;;1.16;79.60
34696;BME280;20918;51.138;17.370;2023-02-17T02:48:31;100557.91;;;1.19;79.38
34696;BME280;20918;51.138;17.370;2023-02-17T02:57:46;100547.24;;;1.22;79.55
34696;BME280;20918;51.138;17.370;2023-02-17T03:00:59;100543.05;;;1.28;79.70
34696;BME280;20918;51.138;17.370;2023-02-17T03:07:15;100531.12;;;1.35;79.46
34696;BME280;20918;51.138;17.370;2023-02-17T03:10:22;100530.98;;;1.37;79.67
34696;BME280;20918;51.138;17.370;2023-02-17T03:13:23;100526.02;;;1.38;79.57
34696;BME280;20918;51.138;17.370;2023-02-17T03:16:25;100526.30;;;1.39;79.77
34696;BME280;20918;51.138;17.370;2023-02-17T03:19:26;100526.22;;;1.40;79.81
34696;BME280;20918;51.138;17.370;2023-02-17T03:22:29;100527.79;;;1.43;79.83
34696;BME280;20918;51.138;17.370;2023-02-17T03:25:30;100517.55;;;1.42;79.73
34696;BME280;20918;51.138;17.370;2023-02-17T03:28:31;100518.66;;;1.42;79.95
34696;BME280;20918;51.138;17.370;2023-02-17T03:31:32;100517.86;;;1.41;80.11
34696;BME280;20918;51.138;17.370;2023-02-17T03:34:32;100526.30;;;1.42;80.30
34696;BME280;20918;51.138;17.370;2023-02-17T03:37:33;100528.23;;;1.47;80.08
34696;BME280;20918;51.138;17.370;2023-02-17T03:40:34;100526.27;;;1.50;80.28
34696;BME280;20918;51.138;17.370;2023-02-17T03:43:34;100527.20;;;1.52;80.30
34696;BME280;20918;51.138;17.370;2023-02-17T03:46:38;100526.64;;;1.55;80.37
34696;BME280;20918;51.138;17.370;2023-02-17T03:49:39;100520.97;;;1.60;80.52
34696;BME280;20918;51.138;17.370;2023-02-17T03:52:39;100515.33;;;1.58;80.37
34696;BME280;20918;51.138;17.370;2023-02-17T03:55:40;100513.71;;;1.59;80.39
34696;BME280;20918;51.138;17.370;2023-02-17T03:58:41;100518.88;;;1.65;80.54
34696;BME280;20918;51.138;17.370;2023-02-17T04:01:41;100514.59;;;1.67;80.69
34696;BME280;20918;51.138;17.370;2023-02-17T04:04:45;100514.26;;;1.69;80.78
34696;BME280;20918;51.138;17.370;2023-02-17T04:07:45;100510.76;;;1.72;80.95
34696;BME280;20918;51.138;17.370;2023-02-17T04:10:50;100514.00;;;1.75;80.64
34696;BME280;20918;51.138;17.370;2023-02-17T04:13:51;100507.02;;;1.76;80.75
34696;BME280;20918;51.138;17.370;2023-02-17T04:16:51;100502.61;;;1.76;80.79
34696;BME280;20918;51.138;17.370;2023-02-17T04:19:52;100504.67;;;1.79;80.81
34696;BME280;20918;51.138;17.370;2023-02-17T04:22:52;100501.44;;;1.78;80.86
34696;BME280;20918;51.138;17.370;2023-02-17T04:25:53;100501.37;;;1.79;81.06
34696;BME280;20918;51.138;17.370;2023-02-17T04:28:53;100499.27;;;1.83;80.99
34696;BME280;20918;51.138;17.370;2023-02-17T04:31:54;100498.38;;;1.85;81.21
34696;BME280;20918;51.138;17.370;2023-02-17T04:34:55;100494.18;;;1.85;81.20
34696;BME280;20918;51.138;17.370;2023-02-17T04:37:55;100487.28;;;1.87;81.19
34696;BME280;20918;51.138;17.370;2023-02-17T04:40:56;100479.13;;;1.89;81.25
34696;BME280;20918;51.138;17.370;2023-02-17T04:43:57;100474.58;;;1.92;81.42
34696;BME280;20918;51.138;17.370;2023-02-17T04:46:58;100464.86;;;1.96;81.38
34696;BME280;20918;51.138;17.370;2023-02-17T04:49:58;100453.87;;;1.98;81.42
34696;BME280;20918;51.138;17.370;2023-02-17T04:52:59;100455.35;;;2.02;81.72
34696;BME280;20918;51.138;17.370;2023-02-17T04:55:59;100456.43;;;2.10;81.77
34696;BME280;20918;51.138;17.370;2023-02-17T04:59:00;100457.48;;;2.14;81.96
34696;BME280;20918;51.138;17.370;2023-02-17T05:02:00;100452.15;;;2.19;81.38
34696;BME280;20918;51.138;17.370;2023-02-17T05:05:01;100449.38;;;2.21;81.77
34696;BME280;20918;51.138;17.370;2023-02-17T05:08:03;100451.84;;;2.23;81.57
34696;BME280;20918;51.138;17.370;2023-02-17T05:11:03;100447.55;;;2.28;81.78
34696;BME280;20918;51.138;17.370;2023-02-17T05:14:04;100440.77;;;2.32;82.00
34696;BME280;20918;51.138;17.370;2023-02-17T05:17:04;100442.38;;;2.39;82.14
34696;BME280;20918;51.138;17.370;2023-02-17T05:20:05;100441.77;;;2.43;81.92
34696;BME280;20918;51.138;17.370;2023-02-17T05:23:06;100441.07;;;2.45;81.97
34696;BME280;20918;51.138;17.370;2023-02-17T05:26:08;100446.64;;;2.48;82.04
34696;BME280;20918;51.138;17.370;2023-02-17T05:29:09;100442.64;;;2.50;82.17
34696;BME280;20918;51.138;17.370;2023-02-17T05:32:09;100441.04;;;2.56;82.61
34696;BME280;20918;51.138;17.370;2023-02-17T05:35:10;100439.30;;;2.65;83.18
34696;BME280;20918;51.138;17.370;2023-02-17T05:38:10;100437.70;;;2.76;83.01
34696;BME280;20918;51.138;17.370;2023-02-17T05:41:11;100428.23;;;2.86;83.00
34696;BME280;20918;51.138;17.370;2023-02-17T05:44:11;100430.59;;;2.97;82.97
34696;BME280;20918;51.138;17.370;2023-02-17T05:47:12;100426.22;;;3.04;83.15
34696;BME280;20918;51.138;17.370;2023-02-17T05:50:13;100430.00;;;3.12;83.21
34696;BME280;20918;51.138;17.370;2023-02-17T05:53:13;100422.16;;;3.20;83.08
34696;BME280;20918;51.138;17.370;2023-02-17T05:56:14;100419.89;;;3.27;83.07
34696;BME280;20918;51.138;17.370;2023-02-17T05:59:14;100417.32;;;3.33;83.23
34696;BME280;20918;51.138;17.370;2023-02-17T06:02:15;100414.54;;;3.40;83.06
34696;BME280;20918;51.138;17.370;2023-02-17T06:05:16;100415.07;;;3.47;83.40
34696;BME280;20918;51.138;17.370;2023-02-17T06:08:16;100412.98;;;3.53;83.20
34696;BME280;20918;51.138;17.370;2023-02-17T06:11:17;100410.10;;;3.59;83.17
34696;BME280;20918;51.138;17.370;2023-02-17T06:14:17;100407.78;;;3.65;83.14
34696;BME280;20918;51.138;17.370;2023-02-17T06:17:18;100408.17;;;3.71;83.07
34696;BME280;20918;51.138;17.370;2023-02-17T06:20:19;100404.00;;;3.78;83.19
34696;BME280;20918;51.138;17.370;2023-02-17T06:23:19;100403.04;;;3.86;83.21
34696;BME280;20918;51.138;17.370;2023-02-17T06:26:20;100405.70;;;3.94;83.03
34696;BME280;20918;51.138;17.370;2023-02-17T06:29:20;100406.70;;;4.02;83.20
34696;BME280;20918;51.138;17.370;2023-02-17T06:32:21;100410.22;;;4.09;83.08
34696;BME280;20918;51.138;17.370;2023-02-17T06:35:22;100413.84;;;4.14;83.19
34696;BME280;20918;51.138;17.370;2023-02-17T06:38:22;100419.61;;;4.19;83.00
34696;BME280;20918;51.138;17.370;2023-02-17T06:41:23;100423.23;;;4.21;83.02
34696;BME280;20918;51.138;17.370;2023-02-17T06:44:23;100429.39;;;4.24;83.01
34696;BME280;20918;51.138;17.370;2023-02-17T06:47:24;100432.48;;;4.24;83.26
34696;BME280;20918;51.138;17.370;2023-02-17T06:50:25;100433.42;;;4.24;83.41
34696;BME280;20918;51.138;17.370;2023-02-17T06:53:25;100431.02;;;4.23;83.29
34696;BME280;20918;51.138;17.370;2023-02-17T06:56:26;100424.77;;;4.22;83.57
34696;BME280;20918;51.138;17.370;2023-02-17T06:59:27;100419.52;;;4.24;83.95
34696;BME280;20918;51.138;17.370;2023-02-17T07:02:27;100416.98;;;4.27;83.95
34696;BME280;20918;51.138;17.370;2023-02-17T07:05:28;100413.39;;;4.31;84.16
34696;BME280;20918;51.138;17.370;2023-02-17T07:08:28;100407.31;;;4.35;84.36
34696;BME280;20918;51.138;17.370;2023-02-17T07:11:29;100407.27;;;4.38;84.31
34696;BME280;20918;51.138;17.370;2023-02-17T07:14:33;100407.38;;;4.41;84.44
34696;BME280;20918;51.138;17.370;2023-02-17T07:17:34;100407.80;;;4.44;84.57
34696;BME280;20918;51.138;17.370;2023-02-17T07:20:35;100411.79;;;4.47;84.64
34696;BME280;20918;51.138;17.370;2023-02-17T07:23:36;100412.48;;;4.52;84.76
34696;BME280;20918;51.138;17.370;2023-02-17T07:26:38;100411.38;;;4.55;84.84
34696;BME280;20918;51.138;17.370;2023-02-17T07:29:39;100411.46;;;4.58;84.82
34696;BME280;20918;51.138;17.370;2023-02-17T07:32:39;100409.77;;;4.60;85.02
34696;BME280;20918;51.138;17.370;2023-02-17T07:35:41;100416.14;;;4.61;85.03
34696;BME280;20918;51.138;17.370;2023-02-17T07:38:45;100405.89;;;4.62;85.25
34696;BME280;20918;51.138;17.370;2023-02-17T07:41:46;100408.81;;;4.63;85.15
34696;BME280;20918;51.138;17.370;2023-02-17T07:44:51;100396.73;;;4.65;85.30
34696;BME280;20918;51.138;17.370;2023-02-17T07:47:52;100390.40;;;4.67;85.31
34696;BME280;20918;51.138;17.370;2023-02-17T07:50:52;100389.25;;;4.71;85.44
34696;BME280;20918;51.138;17.370;2023-02-17T07:53:53;100388.27;;;4.74;85.60
34696;BME280;20918;51.138;17.370;2023-02-17T07:56:54;100383.23;;;4.78;85.50
34696;BME280;20918;51.138;17.370;2023-02-17T07:59:54;100378.55;;;4.82;85.54
34696;BME280;20918;51.138;17.370;2023-02-17T08:02:55;100380.12;;;4.86;85.57
34696;BME280;20918;51.138;17.370;2023-02-17T08:05:55;100378.85;;;4.91;85.57
34696;BME280;20918;51.138;17.370;2023-02-17T08:08:56;100376.81;;;4.95;85.40
34696;BME280;20918;51.138;17.370;2023-02-17T08:12:18;100370.80;;;5.00;85.50
34696;BME280;20918;51.138;17.370;2023-02-17T08:15:37;100368.11;;;5.05;85.26
34696;BME280;20918;51.138;17.370;2023-02-17T08:18:38;100363.92;;;5.09;85.21
34696;BME280;20918;51.138;17.370;2023-02-17T08:21:38;100362.27;;;5.14;85.24
34696;BME280;20918;51.138;17.370;2023-02-17T08:24:39;100361.11;;;5.20;85.08
34696;BME280;20918;51.138;17.370;2023-02-17T08:27:39;100359.79;;;5.25;85.15
34696;BME280;20918;51.138;17.370;2023-02-17T08:30:41;100364.55;;;5.29;84.97
34696;BME280;20918;51.138;17.370;2023-02-17T08:33:41;100361.95;;;5.33;84.91
34696;BME280;20918;51.138;17.370;2023-02-17T08:36:42;100361.08;;;5.37;84.89
34696;BME280;20918;51.138;17.370;2023-02-17T08:39:43;100358.33;;;5.40;84.75
34696;BME280;20918;51.138;17.370;2023-02-17T08:42:44;100360.60;;;5.45;84.69
34696;BME280;20918;51.138;17.370;2023-02-17T08:45:45;100353.64;;;5.51;84.68
34696;BME280;20918;51.138;17.370;2023-02-17T08:48:46;100347.05;;;5.56;84.81
34696;BME280;20918;51.138;17.370;2023-02-17T08:51:47;100340.41;;;5.62;84.47
34696;BME280;20918;51.138;17.370;2023-02-17T08:54:47;100343.80;;;5.69;84.47
34696;BME280;20918;51.138;17.370;2023-02-17T08:57:49;100347.06;;;5.76;84.38
34696;BME280;20918;51.138;17.370;2023-02-17T09:00:49;100349.15;;;5.83;84.58
34696;BME280;20918;51.138;17.370;2023-02-17T09:03:52;100349.50;;;5.87;84.59
34696;BME280;20918;51.138;17.370;2023-02-17T09:06:54;100350.03;;;5.91;84.72
34696;BME280;20918;51.138;17.370;2023-02-17T09:09:57;100345.38;;;5.94;84.68
34696;BME280;20918;51.138;17.370;2023-02-17T09:12:58;100342.85;;;5.98;84.52
34696;BME280;20918;51.138;17.370;2023-02-17T09:15:58;100345.42;;;6.00;84.41
34696;BME280;20918;51.138;17.370;2023-02-17T09:18:59;100343.91;;;6.03;84.52
34696;BME280;20918;51.138;17.370;2023-02-17T09:22:00;100344.30;;;6.07;84.59
34696;BME280;20918;51.138;17.370;2023-02-17T09:25:00;100342.77;;;6.11;84.58
34696;BME280;20918;51.138;17.370;2023-02-17T09:28:01;100343.51;;;6.14;84.30
34696;BME280;20918;51.138;17.370;2023-02-17T09:34:09;100343.16;;;6.20;84.50
34696;BME280;20918;51.138;17.370;2023-02-17T09:37:11;100339.30;;;6.22;84.51
34696;BME280;20918;51.138;17.370;2023-02-17T09:40:21;100330.65;;;6.23;84.64
34696;BME280;20918;51.138;17.370;2023-02-17T09:43:26;100324.79;;;6.23;84.71
34696;BME280;20918;51.138;17.370;2023-02-17T09:46:38;100317.11;;;6.25;84.60
34696;BME280;20918;51.138;17.370;2023-02-17T09:49:44;100315.98;;;6.26;84.56
34696;BME280;20918;51.138;17.370;2023-02-17T09:53:02;100317.75;;;6.27;84.73
34696;BME280;20918;51.138;17.370;2023-02-17T09:56:07;100317.06;;;6.29;84.48
34696;BME280;20918;51.138;17.370;2023-02-17T09:59:33;100317.52;;;6.32;84.41
34696;BME280;20918;51.138;17.370;2023-02-17T10:02:45;100314.84;;;6.35;84.59
34696;BME280;20918;51.138;17.370;2023-02-17T10:09:48;100307.19;;;6.40;84.25
34696;BME280;20918;51.138;17.370;2023-02-17T10:12:57;100302.00;;;6.43;84.21
34696;BME280;20918;51.138;17.370;2023-02-17T10:16:00;100299.36;;;6.45;84.30
34696;BME280;20918;51.138;17.370;2023-02-17T10:19:10;100292.33;;;6.47;84.13
34696;BME280;20918;51.138;17.370;2023-02-17T10:22:16;100290.52;;;6.48;84.16
34696;BME280;20918;51.138;17.370;2023-02-17T10:25:23;100281.33;;;6.48;83.87
34696;BME280;20918;51.138;17.370;2023-02-17T10:32:18;100275.38;;;6.50;84.03
34696;BME280;20918;51.138;17.370;2023-02-17T10:35:37;100267.89;;;6.51;83.92
34696;BME280;20918;51.138;17.370;2023-02-17T10:38:52;100262.88;;;6.54;83.87
34696;BME280;20918;51.138;17.370;2023-02-17T10:41:55;100254.78;;;6.56;83.91
34696;BME280;20918;51.138;17.370;2023-02-17T10:48:07;100250.30;;;6.63;83.64
34696;BME280;20918;51.138;17.370;2023-02-17T10:51:13;100246.91;;;6.67;83.64
34696;BME280;20918;51.138;17.370;2023-02-17T10:54:28;100237.39;;;6.71;83.54
34696;BME280;20918;51.138;17.370;2023-02-17T10:57:37;100235.32;;;6.75;83.31
34696;BME280;20918;51.138;17.370;2023-02-17T11:00:40;100220.48;;;6.78;83.20
34696;BME280;20918;51.138;17.370;2023-02-17T11:03:41;100206.81;;;6.81;82.84
34696;BME280;20918;51.138;17.370;2023-02-17T11:06:46;100203.84;;;6.83;82.99
34696;BME280;20918;51.138;17.370;2023-02-17T11:09:51;100198.04;;;6.85;82.88
34696;BME280;20918;51.138;17.370;2023-02-17T11:12:56;100189.75;;;6.87;82.77
34696;BME280;20918;51.138;17.370;2023-02-17T11:15:59;100182.70;;;6.89;82.48
34696;BME280;20918;51.138;17.370;2023-02-17T11:18:59;100177.42;;;6.93;82.40
34696;BME280;20918;51.138;17.370;2023-02-17T11:22:04;100171.91;;;6.97;82.49
34696;BME280;20918;51.138;17.370;2023-02-17T11:28:25;100160.58;;;7.11;82.29
34696;BME280;20918;51.138;17.370;2023-02-17T11:31:30;100161.98;;;7.19;82.60
34696;BME280;20918;51.138;17.370;2023-02-17T11:34:32;100148.00;;;7.26;82.24
34696;BME280;20918;51.138;17.370;2023-02-17T11:37:41;100145.50;;;7.31;82.17
34696;BME280;20918;51.138;17.370;2023-02-17T11:41:02;100140.98;;;7.36;82.16
34696;BME280;20918;51.138;17.370;2023-02-17T11:44:04;100131.02;;;7.41;81.97
34696;BME280;20918;51.138;17.370;2023-02-17T11:50:29;100115.48;;;7.51;82.22
34696;BME280;20918;51.138;17.370;2023-02-17T11:57:21;100102.91;;;7.66;81.99
34696;BME280;20918;51.138;17.370;2023-02-17T12:21:09;100048.10;;;8.27;80.99
34696;BME280;20918;51.138;17.370;2023-02-17T12:34:30;100027.49;;;8.52;80.73
34696;BME280;20918;51.138;17.370;2023-02-17T12:38:01;100026.61;;;8.54;80.67
34696;BME280;20918;51.138;17.370;2023-02-17T12:41:08;100017.20;;;8.55;80.70
34696;BME280;20918;51.138;17.370;2023-02-17T12:44:19;100019.71;;;8.56;80.63
34696;BME280;20918;51.138;17.370;2023-02-17T12:47:30;100012.96;;;8.55;80.61
34696;BME280;20918;51.138;17.370;2023-02-17T12:54:39;99999.64;;;8.56;80.29
34696;BME280;20918;51.138;17.370;2023-02-17T13:00:48;99988.25;;;8.57;80.26
34696;BME280;20918;51.138;17.370;2023-02-17T13:03:50;99985.50;;;8.56;79.92
34696;BME280;20918;51.138;17.370;2023-02-17T13:13:29;99969.05;;;8.48;80.25
34696;BME280;20918;51.138;17.370;2023-02-17T13:16:41;99965.27;;;8.45;80.34
34696;BME280;20918;51.138;17.370;2023-02-17T13:19:41;99955.80;;;8.45;80.60
34696;BME280;20918;51.138;17.370;2023-02-17T13:22:43;99946.88;;;8.46;80.67
34696;BME280;20918;51.138;17.370;2023-02-17T13:25:44;99945.88;;;8.45;81.05
34696;BME280;20918;51.138;17.370;2023-02-17T13:28:44;99941.71;;;8.46;80.99
34696;BME280;20918;51.138;17.370;2023-02-17T13:34:58;99933.83;;;8.39;81.71
34696;BME280;20918;51.138;17.370;2023-02-17T13:38:00;99926.82;;;8.35;81.64
34696;BME280;20918;51.138;17.370;2023-02-17T13:41:02;99924.68;;;8.33;81.87
34696;BME280;20918;51.138;17.370;2023-02-17T13:44:24;99922.10;;;8.31;81.95
34696;BME280;20918;51.138;17.370;2023-02-17T13:53:34;99911.84;;;8.11;82.03
34696;BME280;20918;51.138;17.370;2023-02-17T13:56:35;99904.30;;;8.05;81.71
34696;BME280;20918;51.138;17.370;2023-02-17T13:59:36;99898.45;;;7.98;81.78
34696;BME280;20918;51.138;17.370;2023-02-17T14:02:54;99892.48;;;7.93;81.68
34696;BME280;20918;51.138;17.370;2023-02-17T14:05:57;99888.91;;;7.90;81.69
34696;BME280;20918;51.138;17.370;2023-02-17T14:08:59;99877.57;;;7.87;81.59
34696;BME280;20918;51.138;17.370;2023-02-17T14:12:05;99876.09;;;7.86;81.61
34696;BME280;20918;51.138;17.370;2023-02-17T14:15:14;99862.20;;;7.84;81.57
34696;BME280;20918;51.138;17.370;2023-02-17T14:18:15;99853.87;;;7.83;81.70
34696;BME280;20918;51.138;17.370;2023-02-17T14:21:26;99852.52;;;7.83;81.79
34696;BME280;20918;51.138;17.370;2023-02-17T14:24:33;99843.00;;;7.81;81.76
34696;BME280;20918;51.138;17.370;2023-02-17T14:27:46;99836.06;;;7.80;81.93
34696;BME280;20918;51.138;17.370;2023-02-17T14:30:47;99833.70;;;7.79;82.12
34696;BME280;20918;51.138;17.370;2023-02-17T14:33:58;99830.10;;;7.76;82.05
34696;BME280;20918;51.138;17.370;2023-02-17T14:37:16;99821.42;;;7.73;82.51
34696;BME280;20918;51.138;17.370;2023-02-17T14:40:21;99811.20;;;7.70;82.48
34696;BME280;20918;51.138;17.370;2023-02-17T14:43:25;99807.72;;;7.66;82.69
34696;BME280;20918;51.138;17.370;2023-02-17T14:46:26;99808.35;;;7.63;82.86
34696;BME280;20918;51.138;17.370;2023-02-17T14:49:27;99803.39;;;7.60;82.96
34696;BME280;20918;51.138;17.370;2023-02-17T14:52:28;99791.85;;;7.57;82.93
34696;BME280;20918;51.138;17.370;2023-02-17T14:55:32;99784.87;;;7.55;83.30
34696;BME280;20918;51.138;17.370;2023-02-17T14:58:37;99781.58;;;7.55;83.37
34696;BME280;20918;51.138;17.370;2023-02-17T15:01:38;99772.83;;;7.54;83.27
34696;BME280;20918;51.138;17.370;2023-02-17T15:04:38;99769.05;;;7.53;83.52
34696;BME280;20918;51.138;17.370;2023-02-17T15:07:39;99762.51;;;7.53;83.44
34696;BME280;20918;51.138;17.370;2023-02-17T15:10:42;99755.13;;;7.55;83.75
34696;BME280;20918;51.138;17.370;2023-02-17T15:13:43;99749.96;;;7.57;83.47
34696;BME280;20918;51.138;17.370;2023-02-17T15:16:45;99740.39;;;7.59;83.45
34696;BME280;20918;51.138;17.370;2023-02-17T15:19:46;99733.02;;;7.63;83.50
34696;BME280;20918;51.138;17.370;2023-02-17T15:22:48;99718.97;;;7.66;83.25
34696;BME280;20918;51.138;17.370;2023-02-17T15:25:53;99709.92;;;7.70;83.47
34696;BME280;20918;51.138;17.370;2023-02-17T15:28:56;99691.84;;;7.73;83.30
34696;BME280;20918;51.138;17.370;2023-02-17T15:31:59;99697.30;;;7.75;83.58
34696;BME280;20918;51.138;17.370;2023-02-17T15:35:00;99692.67;;;7.77;83.50
34696;BME280;20918;51.138;17.370;2023-02-17T15:38:00;99679.89;;;7.78;83.20
34696;BME280;20918;51.138;17.370;2023-02-17T15:41:01;99670.73;;;7.79;83.22
34696;BME280;20918;51.138;17.370;2023-02-17T15:44:15;99661.48;;;7.82;83.48
34696;BME280;20918;51.138;17.370;2023-02-17T15:47:18;99657.13;;;7.83;83.35
34696;BME280;20918;51.138;17.370;2023-02-17T15:50:21;99651.57;;;7.84;83.23
34696;BME280;20918;51.138;17.370;2023-02-17T15:53:22;99649.69;;;7.84;83.36
34696;BME280;20918;51.138;17.370;2023-02-17T15:56:26;99649.62;;;7.84;83.45
34696;BME280;20918;51.138;17.370;2023-02-17T15:59:30;99650.98;;;7.85;83.46
34696;BME280;20918;51.138;17.370;2023-02-17T16:02:30;99654.23;;;7.84;83.70
34696;BME280;20918;51.138;17.370;2023-02-17T16:05:31;99656.92;;;7.84;83.71
34696;BME280;20918;51.138;17.370;2023-02-17T16:08:35;99650.42;;;7.85;83.67
34696;BME280;20918;51.138;17.370;2023-02-17T16:11:44;99657.14;;;7.89;83.81
34696;BME280;20918;51.138;17.370;2023-02-17T16:14:46;99658.83;;;7.93;83.71
34696;BME280;20918;51.138;17.370;2023-02-17T16:17:47;99655.39;;;7.93;83.98
34696;BME280;20918;51.138;17.370;2023-02-17T16:20:49;99656.52;;;7.93;84.14
34696;BME280;20918;51.138;17.370;2023-02-17T16:23:50;99662.65;;;7.91;84.19
34696;BME280;20918;51.138;17.370;2023-02-17T16:26:51;99661.52;;;7.90;84.22
34696;BME280;20918;51.138;17.370;2023-02-17T16:29:52;99654.45;;;7.90;84.43
34696;BME280;20918;51.138;17.370;2023-02-17T16:32:53;99655.80;;;7.91;84.66
34696;BME280;20918;51.138;17.370;2023-02-17T16:35:53;99664.08;;;7.90;84.85
34696;BME280;20918;51.138;17.370;2023-02-17T16:38:54;99665.15;;;7.88;84.82
34696;BME280;20918;51.138;17.370;2023-02-17T16:41:55;99662.67;;;7.84;85.19
34696;BME280;20918;51.138;17.370;2023-02-17T16:44:55;99665.66;;;7.81;85.52
34696;BME280;20918;51.138;17.370;2023-02-17T16:47:59;99658.75;;;7.78;85.87
34696;BME280;20918;51.138;17.370;2023-02-17T16:51:00;99660.98;;;7.75;86.13
34696;BME280;20918;51.138;17.370;2023-02-17T16:54:01;99673.55;;;7.73;86.40
34696;BME280;20918;51.138;17.370;2023-02-17T16:57:01;99673.84;;;7.69;86.46
34696;BME280;20918;51.138;17.370;2023-02-17T17:00:03;99668.08;;;7.64;87.06
34696;BME280;20918;51.138;17.370;2023-02-17T17:03:03;99667.27;;;7.62;87.09
34696;BME280;20918;51.138;17.370;2023-02-17T17:06:17;99672.23;;;7.60;87.45
34696;BME280;20918;51.138;17.370;2023-02-17T17:09:23;99677.91;;;7.58;87.61
34696;BME280;20918;51.138;17.370;2023-02-17T17:12:23;99677.17;;;7.56;87.68
34696;BME280;20918;51.138;17.370;2023-02-17T17:15:25;99690.85;;;7.55;87.89
34696;BME280;20918;51.138;17.370;2023-02-17T17:18:25;99692.84;;;7.53;88.16
34696;BME280;20918;51.138;17.370;2023-02-17T17:21:26;99693.46;;;7.51;88.55
34696;BME280;20918;51.138;17.370;2023-02-17T17:24:27;99702.13;;;7.48;88.68
34696;BME280;20918;51.138;17.370;2023-02-17T17:27:28;99691.09;;;7.46;88.95
34696;BME280;20918;51.138;17.370;2023-02-17T17:30:31;99696.77;;;7.46;89.18
34696;BME280;20918;51.138;17.370;2023-02-17T17:33:32;99687.45;;;7.46;89.54
34696;BME280;20918;51.138;17.370;2023-02-17T17:36:34;99679.67;;;7.46;89.64
34696;BME280;20918;51.138;17.370;2023-02-17T17:39:35;99681.73;;;7.47;89.93
34696;BME280;20918;51.138;17.370;2023-02-17T17:42:35;99683.38;;;7.46;89.70
34696;BME280;20918;51.138;17.370;2023-02-17T17:45:37;99684.52;;;7.45;89.97